sensor_id;sensor_type;location;lat;lon;timestamp;temperature;humidity
26687;DHT22;14298;50.900;4.648;2023-02-03T00:01:54;9.60;97.10
26687;DHT22;14298;50.900;4.648;2023-02-03T00:04:22;9.60;97.10
26687;DHT22;14298;50.900;4.648;2023-02-03T00:06:51;9.60;97.10
26687;DHT22;14298;50.900;4.648;2023-02-03T00:09:20;9.60;97.10
26687;DHT22;14298;50.900;4.648;2023-02-03T00:11:48;9.60;97.10
26687;DHT22;14298;50.900;4.648;2023-02-03T00:14:16;9.60;97.10
26687;DHT22;14298;50.900;4.648;2023-02-03T00:16:45;9.50;97.10
26687;DHT22;14298;50.900;4.648;2023-02-03T00:19:13;9.50;97.10
26687;DHT22;14298;50.900;4.648;2023-02-03T00:21:41;9.50;97.10
26687;DHT22;14298;50.900;4.648;2023-02-03T00:24:10;9.50;97.10
26687;DHT22;14298;50.900;4.648;2023-02-03T00:26:42;9.50;97.10
26687;DHT22;14298;50.900;4.648;2023-02-03T00:29:10;9.50;97.10
26687;DHT22;14298;50.900;4.648;2023-02-03T00:31:40;9.50;97.10
26687;DHT22;14298;50.900;4.648;2023-02-03T00:34:09;9.50;97.10
26687;DHT22;14298;50.900;4.648;2023-02-03T00:36:37;9.40;97.10
26687;DHT22;14298;50.900;4.648;2023-02-03T00:39:05;9.50;97.10
26687;DHT22;14298;50.900;4.648;2023-02-03T00:41:34;9.50;97.10
26687;DHT22;14298;50.900;4.648;2023-02-03T00:44:02;9.50;97.10
26687;DHT22;14298;50.900;4.648;2023-02-03T00:46:30;9.50;97.10
26687;DHT22;14298;50.900;4.648;2023-02-03T00:48:59;9.50;97.10
26687;DHT22;14298;50.900;4.648;2023-02-03T00:51:27;9.50;97.10
26687;DHT22;14298;50.900;4.648;2023-02-03T00:53:55;9.60;97.10
26687;DHT22;14298;50.900;4.648;2023-02-03T00:56:24;9.50;97.10
26687;DHT22;14298;50.900;4.648;2023-02-03T00:58:52;9.50;97.10
26687;DHT22;14298;50.900;4.648;2023-02-03T01:01:20;9.50;97.10
26687;DHT22;14298;50.900;4.648;2023-02-03T01:03:49;9.50;97.10
26687;DHT22;14298;50.900;4.648;2023-02-03T01:06:19;9.50;97.10
26687;DHT22;14298;50.900;4.648;2023-02-03T01:08:48;9.50;97.10
26687;DHT22;14298;50.900;4.648;2023-02-03T01:11:22;9.50;97.10
26687;DHT22;14298;50.900;4.648;2023-02-03T01:13:51;9.60;97.10
26687;DHT22;14298;50.900;4.648;2023-02-03T01:16:22;9.60;97.10
26687;DHT22;14298;50.900;4.648;2023-02-03T01:18:51;9.60;97.10
26687;DHT22;14298;50.900;4.648;2023-02-03T01:21:22;9.60;97.10
26687;DHT22;14298;50.900;4.648;2023-02-03T01:23:50;9.60;97.10
26687;DHT22;14298;50.900;4.648;2023-02-03T01:26:22;9.60;97.10
26687;DHT22;14298;50.900;4.648;2023-02-03T01:28:55;9.70;97.10
26687;DHT22;14298;50.900;4.648;2023-02-03T01:31:26;9.60;97.10
26687;DHT22;14298;50.900;4.648;2023-02-03T01:33:55;9.60;97.10
26687;DHT22;14298;50.900;4.648;2023-02-03T01:36:27;9.60;97.10
26687;DHT22;14298;50.900;4.648;2023-02-03T01:38:56;9.60;97.10
26687;DHT22;14298;50.900;4.648;2023-02-03T01:41:27;9.60;97.10
26687;DHT22;14298;50.900;4.648;2023-02-03T01:43:57;9.60;97.10
26687;DHT22;14298;50.900;4.648;2023-02-03T01:46:37;9.60;97.10
26687;DHT22;14298;50.900;4.648;2023-02-03T01:51:42;9.70;97.10
26687;DHT22;14298;50.900;4.648;2023-02-03T01:54:21;9.70;97.10
26687;DHT22;14298;50.900;4.648;2023-02-03T01:56:45;9.70;97.10
26687;DHT22;14298;50.900;4.648;2023-02-03T01:59:16;9.70;97.10
26687;DHT22;14298;50.900;4.648;2023-02-03T02:01:45;9.70;97.10
26687;DHT22;14298;50.900;4.648;2023-02-03T02:04:14;9.70;97.10
26687;DHT22;14298;50.900;4.648;2023-02-03T02:06:43;9.70;97.10
26687;DHT22;14298;50.900;4.648;2023-02-03T02:09:13;9.70;97.10
26687;DHT22;14298;50.900;4.648;2023-02-03T02:11:43;9.70;97.10
26687;DHT22;14298;50.900;4.648;2023-02-03T02:14:11;9.70;97.10
26687;DHT22;14298;50.900;4.648;2023-02-03T02:22:51;9.70;97.10
26687;DHT22;14298;50.900;4.648;2023-02-03T02:34:07;9.70;97.10
26687;DHT22;14298;50.900;4.648;2023-02-03T02:39:23;9.70;97.10
26687;DHT22;14298;50.900;4.648;2023-02-03T02:42:05;9.70;97.10
26687;DHT22;14298;50.900;4.648;2023-02-03T02:47:04;9.70;97.10
26687;DHT22;14298;50.900;4.648;2023-02-03T02:49:38;9.70;97.10
26687;DHT22;14298;50.900;4.648;2023-02-03T02:52:07;9.70;97.10
26687;DHT22;14298;50.900;4.648;2023-02-03T02:54:55;9.80;97.10
26687;DHT22;14298;50.900;4.648;2023-02-03T02:57:26;9.70;97.10
26687;DHT22;14298;50.900;4.648;2023-02-03T02:59:56;9.70;97.10
26687;DHT22;14298;50.900;4.648;2023-02-03T03:02:32;9.80;97.10
26687;DHT22;14298;50.900;4.648;2023-02-03T03:05:06;9.70;97.10
26687;DHT22;14298;50.900;4.648;2023-02-03T03:07:52;9.70;97.10
26687;DHT22;14298;50.900;4.648;2023-02-03T03:10:17;9.70;97.10
26687;DHT22;14298;50.900;4.648;2023-02-03T03:12:52;9.80;97.10
26687;DHT22;14298;50.900;4.648;2023-02-03T03:15:27;9.70;97.10
26687;DHT22;14298;50.900;4.648;2023-02-03T03:17:54;9.80;97.10
26687;DHT22;14298;50.900;4.648;2023-02-03T03:20:24;9.70;97.10
26687;DHT22;14298;50.900;4.648;2023-02-03T03:23:02;9.80;97.10
26687;DHT22;14298;50.900;4.648;2023-02-03T03:25:37;9.80;97.10
26687;DHT22;14298;50.900;4.648;2023-02-03T03:28:11;9.80;97.10
26687;DHT22;14298;50.900;4.648;2023-02-03T03:30:39;9.80;97.10
26687;DHT22;14298;50.900;4.648;2023-02-03T03:33:08;9.80;97.10
26687;DHT22;14298;50.900;4.648;2023-02-03T03:35:52;9.80;97.10
26687;DHT22;14298;50.900;4.648;2023-02-03T03:38:52;9.80;97.10
26687;DHT22;14298;50.900;4.648;2023-02-03T03:41:13;9.80;97.10
26687;DHT22;14298;50.900;4.648;2023-02-03T03:43:43;9.80;97.10
26687;DHT22;14298;50.900;4.648;2023-02-03T03:46:25;9.80;97.10
26687;DHT22;14298;50.900;4.648;2023-02-03T03:49:01;9.80;97.10
26687;DHT22;14298;50.900;4.648;2023-02-03T03:51:38;9.80;97.10
26687;DHT22;14298;50.900;4.648;2023-02-03T03:54:04;9.80;97.10
26687;DHT22;14298;50.900;4.648;2023-02-03T03:56:42;9.80;97.10
26687;DHT22;14298;50.900;4.648;2023-02-03T03:59:11;9.80;97.10
26687;DHT22;14298;50.900;4.648;2023-02-03T04:01:41;9.80;97.10
26687;DHT22;14298;50.900;4.648;2023-02-03T04:04:10;9.80;97.10
26687;DHT22;14298;50.900;4.648;2023-02-03T04:06:39;9.80;97.10
26687;DHT22;14298;50.900;4.648;2023-02-03T04:09:08;9.80;97.10
26687;DHT22;14298;50.900;4.648;2023-02-03T04:11:36;9.80;97.10
26687;DHT22;14298;50.900;4.648;2023-02-03T04:14:23;9.80;97.10
26687;DHT22;14298;50.900;4.648;2023-02-03T04:16:51;9.80;97.10
26687;DHT22;14298;50.900;4.648;2023-02-03T04:19:19;9.80;97.10
26687;DHT22;14298;50.900;4.648;2023-02-03T04:21:48;9.80;97.10
26687;DHT22;14298;50.900;4.648;2023-02-03T04:24:16;9.70;97.10
26687;DHT22;14298;50.900;4.648;2023-02-03T04:26:44;9.80;97.10
26687;DHT22;14298;50.900;4.648;2023-02-03T04:29:13;9.80;97.10
26687;DHT22;14298;50.900;4.648;2023-02-03T04:31:41;9.80;97.10
26687;DHT22;14298;50.900;4.648;2023-02-03T04:34:09;9.80;97.10
26687;DHT22;14298;50.900;4.648;2023-02-03T04:36:38;9.70;97.10
26687;DHT22;14298;50.900;4.648;2023-02-03T04:39:06;9.80;97.10
26687;DHT22;14298;50.900;4.648;2023-02-03T04:41:34;9.80;97.10
26687;DHT22;14298;50.900;4.648;2023-02-03T04:44:03;9.80;97.10
26687;DHT22;14298;50.900;4.648;2023-02-03T04:46:31;9.70;97.10
26687;DHT22;14298;50.900;4.648;2023-02-03T04:49:00;9.80;97.10
26687;DHT22;14298;50.900;4.648;2023-02-03T04:51:28;9.70;97.10
26687;DHT22;14298;50.900;4.648;2023-02-03T04:53:56;9.70;97.10
26687;DHT22;14298;50.900;4.648;2023-02-03T04:56:24;9.70;97.10
26687;DHT22;14298;50.900;4.648;2023-02-03T04:58:53;9.70;97.10
26687;DHT22;14298;50.900;4.648;2023-02-03T05:01:21;9.70;97.10
26687;DHT22;14298;50.900;4.648;2023-02-03T05:03:49;9.70;97.10
26687;DHT22;14298;50.900;4.648;2023-02-03T05:06:23;9.70;97.10
26687;DHT22;14298;50.900;4.648;2023-02-03T05:08:52;9.70;97.10
26687;DHT22;14298;50.900;4.648;2023-02-03T05:11:21;9.70;97.10
26687;DHT22;14298;50.900;4.648;2023-02-03T05:13:50;9.70;97.10
26687;DHT22;14298;50.900;4.648;2023-02-03T05:16:19;9.70;97.10
26687;DHT22;14298;50.900;4.648;2023-02-03T05:18:47;9.70;97.10
26687;DHT22;14298;50.900;4.648;2023-02-03T05:21:16;9.70;97.10
26687;DHT22;14298;50.900;4.648;2023-02-03T05:23:44;9.70;97.10
26687;DHT22;14298;50.900;4.648;2023-02-03T05:26:13;9.70;97.10
26687;DHT22;14298;50.900;4.648;2023-02-03T05:28:41;9.70;97.10
26687;DHT22;14298;50.900;4.648;2023-02-03T05:31:09;9.70;97.10
26687;DHT22;14298;50.900;4.648;2023-02-03T05:33:37;9.70;97.10
26687;DHT22;14298;50.900;4.648;2023-02-03T05:36:06;9.70;97.10
26687;DHT22;14298;50.900;4.648;2023-02-03T05:38:35;9.70;97.10
26687;DHT22;14298;50.900;4.648;2023-02-03T05:41:03;9.70;97.10
26687;DHT22;14298;50.900;4.648;2023-02-03T05:43:51;9.70;97.10
26687;DHT22;14298;50.900;4.648;2023-02-03T05:46:19;9.70;97.10
26687;DHT22;14298;50.900;4.648;2023-02-03T05:48:48;9.70;97.10
26687;DHT22;14298;50.900;4.648;2023-02-03T05:51:16;9.70;97.10
26687;DHT22;14298;50.900;4.648;2023-02-03T05:53:44;9.70;97.10
26687;DHT22;14298;50.900;4.648;2023-02-03T05:56:13;9.70;97.10
26687;DHT22;14298;50.900;4.648;2023-02-03T05:58:41;9.70;97.10
26687;DHT22;14298;50.900;4.648;2023-02-03T06:01:09;9.70;97.10
26687;DHT22;14298;50.900;4.648;2023-02-03T06:03:38;9.70;97.10
26687;DHT22;14298;50.900;4.648;2023-02-03T06:06:06;9.70;97.10
26687;DHT22;14298;50.900;4.648;2023-02-03T06:08:34;9.70;97.10
26687;DHT22;14298;50.900;4.648;2023-02-03T06:11:03;9.70;97.10
26687;DHT22;14298;50.900;4.648;2023-02-03T06:13:31;9.70;97.10
26687;DHT22;14298;50.900;4.648;2023-02-03T06:15:59;9.80;97.10
26687;DHT22;14298;50.900;4.648;2023-02-03T06:18:28;9.70;97.10
26687;DHT22;14298;50.900;4.648;2023-02-03T06:20:56;9.70;97.10
26687;DHT22;14298;50.900;4.648;2023-02-03T06:23:24;9.70;97.10
26687;DHT22;14298;50.900;4.648;2023-02-03T06:25:53;9.70;97.10
26687;DHT22;14298;50.900;4.648;2023-02-03T06:28:21;9.80;97.10
26687;DHT22;14298;50.900;4.648;2023-02-03T06:30:50;9.70;97.10
26687;DHT22;14298;50.900;4.648;2023-02-03T06:33:19;9.70;97.10
26687;DHT22;14298;50.900;4.648;2023-02-03T06:35:47;9.70;97.10
26687;DHT22;14298;50.900;4.648;2023-02-03T06:38:16;9.70;97.10
26687;DHT22;14298;50.900;4.648;2023-02-03T06:40:46;9.70;97.10
26687;DHT22;14298;50.900;4.648;2023-02-03T06:43:15;9.70;97.10
26687;DHT22;14298;50.900;4.648;2023-02-03T06:45:47;9.70;97.10
26687;DHT22;14298;50.900;4.648;2023-02-03T06:48:15;9.70;97.10
26687;DHT22;14298;50.900;4.648;2023-02-03T06:50:44;9.70;97.10
26687;DHT22;14298;50.900;4.648;2023-02-03T06:53:12;9.70;97.10
26687;DHT22;14298;50.900;4.648;2023-02-03T06:55:41;9.70;97.10
26687;DHT22;14298;50.900;4.648;2023-02-03T06:58:09;9.70;97.10
26687;DHT22;14298;50.900;4.648;2023-02-03T07:00:38;9.70;97.10
26687;DHT22;14298;50.900;4.648;2023-02-03T07:03:06;9.80;97.10
26687;DHT22;14298;50.900;4.648;2023-02-03T07:05:34;9.70;97.10
26687;DHT22;14298;50.900;4.648;2023-02-03T07:08:03;9.70;97.10
26687;DHT22;14298;50.900;4.648;2023-02-03T07:10:31;9.70;97.10
26687;DHT22;14298;50.900;4.648;2023-02-03T07:13:06;9.70;97.10
26687;DHT22;14298;50.900;4.648;2023-02-03T07:15:34;9.70;97.10
26687;DHT22;14298;50.900;4.648;2023-02-03T07:18:03;9.60;97.10
26687;DHT22;14298;50.900;4.648;2023-02-03T07:20:31;9.70;97.10
26687;DHT22;14298;50.900;4.648;2023-02-03T07:22:59;9.70;97.10
26687;DHT22;14298;50.900;4.648;2023-02-03T07:25:28;9.70;97.10
26687;DHT22;14298;50.900;4.648;2023-02-03T07:27:56;9.70;97.10
26687;DHT22;14298;50.900;4.648;2023-02-03T07:30:25;9.70;97.10
26687;DHT22;14298;50.900;4.648;2023-02-03T07:32:53;9.70;97.10
26687;DHT22;14298;50.900;4.648;2023-02-03T07:35:22;9.70;97.10
26687;DHT22;14298;50.900;4.648;2023-02-03T07:37:50;9.80;97.10
26687;DHT22;14298;50.900;4.648;2023-02-03T07:40:19;9.80;97.10
26687;DHT22;14298;50.900;4.648;2023-02-03T07:42:48;9.80;97.10
26687;DHT22;14298;50.900;4.648;2023-02-03T07:45:17;9.80;97.10
26687;DHT22;14298;50.900;4.648;2023-02-03T07:47:46;9.80;97.10
26687;DHT22;14298;50.900;4.648;2023-02-03T07:50:14;9.80;97.10
26687;DHT22;14298;50.900;4.648;2023-02-03T07:52:43;9.80;97.10
26687;DHT22;14298;50.900;4.648;2023-02-03T07:55:11;9.90;97.10
26687;DHT22;14298;50.900;4.648;2023-02-03T07:57:39;9.90;97.10
26687;DHT22;14298;50.900;4.648;2023-02-03T08:00:11;9.90;97.10
26687;DHT22;14298;50.900;4.648;2023-02-03T08:02:42;9.90;97.10
26687;DHT22;14298;50.900;4.648;2023-02-03T08:05:11;9.90;97.10
26687;DHT22;14298;50.900;4.648;2023-02-03T08:07:40;9.90;97.10
26687;DHT22;14298;50.900;4.648;2023-02-03T08:10:09;9.90;97.10
26687;DHT22;14298;50.900;4.648;2023-02-03T08:12:38;10.00;97.10
26687;DHT22;14298;50.900;4.648;2023-02-03T08:15:08;10.00;97.10
26687;DHT22;14298;50.900;4.648;2023-02-03T08:17:37;10.00;97.10
26687;DHT22;14298;50.900;4.648;2023-02-03T08:20:09;10.00;97.10
26687;DHT22;14298;50.900;4.648;2023-02-03T08:22:38;10.00;97.10
26687;DHT22;14298;50.900;4.648;2023-02-03T08:25:07;10.00;97.10
26687;DHT22;14298;50.900;4.648;2023-02-03T08:27:35;10.00;97.10
26687;DHT22;14298;50.900;4.648;2023-02-03T08:30:05;10.00;97.10
26687;DHT22;14298;50.900;4.648;2023-02-03T08:32:34;10.10;97.10
26687;DHT22;14298;50.900;4.648;2023-02-03T08:35:03;10.10;97.10
26687;DHT22;14298;50.900;4.648;2023-02-03T08:37:31;10.10;97.10
26687;DHT22;14298;50.900;4.648;2023-02-03T08:40:00;10.10;97.10
26687;DHT22;14298;50.900;4.648;2023-02-03T08:42:29;10.10;97.10
26687;DHT22;14298;50.900;4.648;2023-02-03T08:44:57;10.20;97.10
26687;DHT22;14298;50.900;4.648;2023-02-03T08:47:26;10.20;97.10
26687;DHT22;14298;50.900;4.648;2023-02-03T08:49:54;10.30;97.10
26687;DHT22;14298;50.900;4.648;2023-02-03T08:52:23;10.30;97.10
26687;DHT22;14298;50.900;4.648;2023-02-03T08:54:51;10.30;97.10
26687;DHT22;14298;50.900;4.648;2023-02-03T08:57:19;10.30;97.10
26687;DHT22;14298;50.900;4.648;2023-02-03T08:59:48;10.30;97.10
26687;DHT22;14298;50.900;4.648;2023-02-03T09:02:18;10.30;97.10
26687;DHT22;14298;50.900;4.648;2023-02-03T09:04:47;10.30;97.10
26687;DHT22;14298;50.900;4.648;2023-02-03T09:07:16;10.30;97.10
26687;DHT22;14298;50.900;4.648;2023-02-03T09:09:45;10.30;97.10
26687;DHT22;14298;50.900;4.648;2023-02-03T09:12:13;10.30;97.10
26687;DHT22;14298;50.900;4.648;2023-02-03T09:14:42;10.30;97.10
26687;DHT22;14298;50.900;4.648;2023-02-03T09:17:10;10.30;97.10
26687;DHT22;14298;50.900;4.648;2023-02-03T09:19:39;10.30;97.10
26687;DHT22;14298;50.900;4.648;2023-02-03T09:24:30;10.30;97.10
26687;DHT22;14298;50.900;4.648;2023-02-03T09:26:58;10.30;97.10
26687;DHT22;14298;50.900;4.648;2023-02-03T09:29:27;10.20;97.10
26687;DHT22;14298;50.900;4.648;2023-02-03T09:31:56;10.20;97.10
26687;DHT22;14298;50.900;4.648;2023-02-03T09:34:24;10.20;97.10
26687;DHT22;14298;50.900;4.648;2023-02-03T09:36:52;10.30;97.10
26687;DHT22;14298;50.900;4.648;2023-02-03T09:39:21;10.30;97.10
26687;DHT22;14298;50.900;4.648;2023-02-03T09:42:16;10.30;97.10
26687;DHT22;14298;50.900;4.648;2023-02-03T09:47:40;10.40;97.10
26687;DHT22;14298;50.900;4.648;2023-02-03T09:50:24;10.40;97.10
26687;DHT22;14298;50.900;4.648;2023-02-03T09:52:55;10.30;97.10
26687;DHT22;14298;50.900;4.648;2023-02-03T09:55:33;10.40;97.10
26687;DHT22;14298;50.900;4.648;2023-02-03T09:58:13;10.40;97.10
26687;DHT22;14298;50.900;4.648;2023-02-03T10:06:07;10.50;97.10
26687;DHT22;14298;50.900;4.648;2023-02-03T10:12:05;10.50;97.10
26687;DHT22;14298;50.900;4.648;2023-02-03T10:17:06;10.70;97.10
26687;DHT22;14298;50.900;4.648;2023-02-03T10:22:09;10.80;97.10
26687;DHT22;14298;50.900;4.648;2023-02-03T10:24:42;10.90;97.10
26687;DHT22;14298;50.900;4.648;2023-02-03T10:27:18;10.90;97.10
26687;DHT22;14298;50.900;4.648;2023-02-03T10:32:33;10.90;97.10
26687;DHT22;14298;50.900;4.648;2023-02-03T10:35:04;11.00;97.10
26687;DHT22;14298;50.900;4.648;2023-02-03T10:37:41;11.00;97.10
26687;DHT22;14298;50.900;4.648;2023-02-03T10:40:10;11.10;97.10
26687;DHT22;14298;50.900;4.648;2023-02-03T10:42:38;11.00;97.10
26687;DHT22;14298;50.900;4.648;2023-02-03T10:45:24;11.00;97.10
26687;DHT22;14298;50.900;4.648;2023-02-03T10:47:54;11.00;97.10
26687;DHT22;14298;50.900;4.648;2023-02-03T10:50:25;11.00;97.10
26687;DHT22;14298;50.900;4.648;2023-02-03T10:55:45;11.00;97.10
26687;DHT22;14298;50.900;4.648;2023-02-03T10:58:24;10.90;97.10
26687;DHT22;14298;50.900;4.648;2023-02-03T11:01:12;10.80;97.10
26687;DHT22;14298;50.900;4.648;2023-02-03T11:03:52;10.80;97.10
26687;DHT22;14298;50.900;4.648;2023-02-03T11:06:16;10.80;97.10
26687;DHT22;14298;50.900;4.648;2023-02-03T11:08:47;10.80;97.10
26687;DHT22;14298;50.900;4.648;2023-02-03T11:11:26;10.80;97.10
26687;DHT22;14298;50.900;4.648;2023-02-03T11:16:33;10.70;97.10
26687;DHT22;14298;50.900;4.648;2023-02-03T11:21:43;10.70;97.10
26687;DHT22;14298;50.900;4.648;2023-02-03T11:26:56;10.70;97.10
26687;DHT22;14298;50.900;4.648;2023-02-03T11:29:26;10.70;97.10
26687;DHT22;14298;50.900;4.648;2023-02-03T11:32:00;10.70;97.10
26687;DHT22;14298;50.900;4.648;2023-02-03T11:34:31;10.80;97.10
26687;DHT22;14298;50.900;4.648;2023-02-03T11:42:58;11.00;97.10
26687;DHT22;14298;50.900;4.648;2023-02-03T11:48:01;10.90;97.10
26687;DHT22;14298;50.900;4.648;2023-02-03T11:50:55;10.80;97.10
26687;DHT22;14298;50.900;4.648;2023-02-03T11:56:25;10.80;97.10
26687;DHT22;14298;50.900;4.648;2023-02-03T12:04:57;10.80;97.10
26687;DHT22;14298;50.900;4.648;2023-02-03T12:26:41;11.00;97.10
26687;DHT22;14298;50.900;4.648;2023-02-03T12:29:29;10.90;97.10
26687;DHT22;14298;50.900;4.648;2023-02-03T12:32:25;10.90;97.10
26687;DHT22;14298;50.900;4.648;2023-02-03T12:34:55;11.00;97.10
26687;DHT22;14298;50.900;4.648;2023-02-03T12:37:47;11.00;97.10
26687;DHT22;14298;50.900;4.648;2023-02-03T12:40:22;11.10;97.10
26687;DHT22;14298;50.900;4.648;2023-02-03T12:43:16;11.10;97.10
26687;DHT22;14298;50.900;4.648;2023-02-03T12:45:33;11.20;97.10
26687;DHT22;14298;50.900;4.648;2023-02-03T12:48:09;11.20;97.10
26687;DHT22;14298;50.900;4.648;2023-02-03T12:50:38;11.20;97.10
26687;DHT22;14298;50.900;4.648;2023-02-03T12:53:19;11.20;97.10
26687;DHT22;14298;50.900;4.648;2023-02-03T12:56:01;11.30;97.10
26687;DHT22;14298;50.900;4.648;2023-02-03T12:58:49;11.30;97.10
26687;DHT22;14298;50.900;4.648;2023-02-03T13:01:24;11.30;97.10
26687;DHT22;14298;50.900;4.648;2023-02-03T13:04:10;11.30;97.10
26687;DHT22;14298;50.900;4.648;2023-02-03T13:09:47;11.30;97.10
26687;DHT22;14298;50.900;4.648;2023-02-03T13:15:05;11.30;97.10
26687;DHT22;14298;50.900;4.648;2023-02-03T13:23:13;11.50;97.10
26687;DHT22;14298;50.900;4.648;2023-02-03T13:28:39;11.60;97.10
26687;DHT22;14298;50.900;4.648;2023-02-03T13:39:21;11.60;97.10
26687;DHT22;14298;50.900;4.648;2023-02-03T13:44:44;11.50;97.10
26687;DHT22;14298;50.900;4.648;2023-02-03T13:47:18;11.50;97.10
26687;DHT22;14298;50.900;4.648;2023-02-03T13:49:51;11.40;97.10
26687;DHT22;14298;50.900;4.648;2023-02-03T13:52:28;11.40;97.10
26687;DHT22;14298;50.900;4.648;2023-02-03T13:54:57;11.40;97.10
26687;DHT22;14298;50.900;4.648;2023-02-03T13:57:31;11.40;97.10
26687;DHT22;14298;50.900;4.648;2023-02-03T14:02:53;11.40;97.10
26687;DHT22;14298;50.900;4.648;2023-02-03T14:05:39;11.30;97.10
26687;DHT22;14298;50.900;4.648;2023-02-03T14:16:46;11.30;97.10
26687;DHT22;14298;50.900;4.648;2023-02-03T14:22:14;11.30;97.10
26687;DHT22;14298;50.900;4.648;2023-02-03T14:24:41;11.30;97.10
26687;DHT22;14298;50.900;4.648;2023-02-03T14:27:25;11.30;97.10
26687;DHT22;14298;50.900;4.648;2023-02-03T14:30:06;11.30;97.10
26687;DHT22;14298;50.900;4.648;2023-02-03T14:32:49;11.30;97.10
26687;DHT22;14298;50.900;4.648;2023-02-03T14:35:30;11.30;97.10
26687;DHT22;14298;50.900;4.648;2023-02-03T14:37:54;11.30;97.10
26687;DHT22;14298;50.900;4.648;2023-02-03T14:46:05;11.30;97.10
26687;DHT22;14298;50.900;4.648;2023-02-03T14:48:47;11.40;97.10
26687;DHT22;14298;50.900;4.648;2023-02-03T14:51:39;11.40;97.10
26687;DHT22;14298;50.900;4.648;2023-02-03T14:54:24;11.40;97.10
26687;DHT22;14298;50.900;4.648;2023-02-03T15:00:24;11.40;97.10
26687;DHT22;14298;50.900;4.648;2023-02-03T15:03:27;11.40;97.10
26687;DHT22;14298;50.900;4.648;2023-02-03T15:07:49;11.30;97.10
26687;DHT22;14298;50.900;4.648;2023-02-03T15:10:28;11.30;97.10
26687;DHT22;14298;50.900;4.648;2023-02-03T15:12:57;11.30;97.10
26687;DHT22;14298;50.900;4.648;2023-02-03T15:15:28;11.30;97.10
26687;DHT22;14298;50.900;4.648;2023-02-03T15:17:58;11.30;97.10
26687;DHT22;14298;50.900;4.648;2023-02-03T15:20:33;11.30;97.10
26687;DHT22;14298;50.900;4.648;2023-02-03T15:23:02;11.30;97.10
26687;DHT22;14298;50.900;4.648;2023-02-03T15:25:32;11.30;97.10
26687;DHT22;14298;50.900;4.648;2023-02-03T15:28:10;11.30;97.10
26687;DHT22;14298;50.900;4.648;2023-02-03T15:30:40;11.30;97.10
26687;DHT22;14298;50.900;4.648;2023-02-03T15:33:16;11.20;97.10
26687;DHT22;14298;50.900;4.648;2023-02-03T15:35:54;11.20;97.10
26687;DHT22;14298;50.900;4.648;2023-02-03T15:38:33;11.20;97.10
26687;DHT22;14298;50.900;4.648;2023-02-03T15:41:00;11.20;97.10
26687;DHT22;14298;50.900;4.648;2023-02-03T15:43:42;11.20;97.10
26687;DHT22;14298;50.900;4.648;2023-02-03T15:48:48;11.30;97.10
26687;DHT22;14298;50.900;4.648;2023-02-03T15:51:24;11.20;97.10
26687;DHT22;14298;50.900;4.648;2023-02-03T15:54:00;11.20;97.10
26687;DHT22;14298;50.900;4.648;2023-02-03T15:56:40;11.10;97.10
26687;DHT22;14298;50.900;4.648;2023-02-03T15:59:25;11.00;97.10
26687;DHT22;14298;50.900;4.648;2023-02-03T16:04:31;10.80;97.10
26687;DHT22;14298;50.900;4.648;2023-02-03T16:06:59;10.80;97.10
26687;DHT22;14298;50.900;4.648;2023-02-03T16:09:30;10.80;97.10
26687;DHT22;14298;50.900;4.648;2023-02-03T16:12:16;10.80;97.10
26687;DHT22;14298;50.900;4.648;2023-02-03T16:14:45;10.80;97.10
26687;DHT22;14298;50.900;4.648;2023-02-03T16:20:18;10.80;97.10
26687;DHT22;14298;50.900;4.648;2023-02-03T16:22:46;10.80;97.10
26687;DHT22;14298;50.900;4.648;2023-02-03T16:27:54;10.70;97.10
26687;DHT22;14298;50.900;4.648;2023-02-03T16:30:56;10.70;97.10
26687;DHT22;14298;50.900;4.648;2023-02-03T16:33:45;10.70;97.10
26687;DHT22;14298;50.900;4.648;2023-02-03T16:36:32;10.70;97.10
26687;DHT22;14298;50.900;4.648;2023-02-03T16:39:18;10.70;97.10
26687;DHT22;14298;50.900;4.648;2023-02-03T16:42:20;10.70;97.10
26687;DHT22;14298;50.900;4.648;2023-02-03T16:45:10;10.80;97.10
26687;DHT22;14298;50.900;4.648;2023-02-03T16:47:53;10.80;97.10
26687;DHT22;14298;50.900;4.648;2023-02-03T16:50:40;10.70;97.10
26687;DHT22;14298;50.900;4.648;2023-02-03T16:53:27;10.80;97.10
26687;DHT22;14298;50.900;4.648;2023-02-03T16:55:59;10.70;97.10
26687;DHT22;14298;50.900;4.648;2023-02-03T16:58:28;10.60;97.10
26687;DHT22;14298;50.900;4.648;2023-02-03T17:00:58;10.60;97.10
26687;DHT22;14298;50.900;4.648;2023-02-03T17:03:27;10.60;97.10
26687;DHT22;14298;50.900;4.648;2023-02-03T17:05:56;10.60;97.10
26687;DHT22;14298;50.900;4.648;2023-02-03T17:08:25;10.60;97.10
26687;DHT22;14298;50.900;4.648;2023-02-03T17:10:53;10.60;97.10
26687;DHT22;14298;50.900;4.648;2023-02-03T17:13:22;10.60;97.10
26687;DHT22;14298;50.900;4.648;2023-02-03T17:15:51;10.50;97.10
26687;DHT22;14298;50.900;4.648;2023-02-03T17:18:20;10.50;97.10
26687;DHT22;14298;50.900;4.648;2023-02-03T17:20:49;10.50;97.10
26687;DHT22;14298;50.900;4.648;2023-02-03T17:23:17;10.50;97.10
26687;DHT22;14298;50.900;4.648;2023-02-03T17:26:05;10.50;97.10
26687;DHT22;14298;50.900;4.648;2023-02-03T17:28:34;10.50;97.10
26687;DHT22;14298;50.900;4.648;2023-02-03T17:31:05;10.50;97.10
26687;DHT22;14298;50.900;4.648;2023-02-03T17:33:34;10.40;97.10
26687;DHT22;14298;50.900;4.648;2023-02-03T17:38:42;10.30;97.10
26687;DHT22;14298;50.900;4.648;2023-02-03T17:41:15;10.30;97.10
26687;DHT22;14298;50.900;4.648;2023-02-03T17:43:45;10.30;97.10
26687;DHT22;14298;50.900;4.648;2023-02-03T17:46:22;10.30;97.10
26687;DHT22;14298;50.900;4.648;2023-02-03T17:49:11;10.20;97.10
26687;DHT22;14298;50.900;4.648;2023-02-03T17:51:39;10.20;97.10
26687;DHT22;14298;50.900;4.648;2023-02-03T17:54:08;10.20;97.10
26687;DHT22;14298;50.900;4.648;2023-02-03T17:56:37;10.20;97.10
26687;DHT22;14298;50.900;4.648;2023-02-03T17:59:05;10.20;97.10
26687;DHT22;14298;50.900;4.648;2023-02-03T18:01:34;10.20;97.10
26687;DHT22;14298;50.900;4.648;2023-02-03T18:04:03;10.30;97.10
26687;DHT22;14298;50.900;4.648;2023-02-03T18:06:32;10.30;97.10
26687;DHT22;14298;50.900;4.648;2023-02-03T18:09:04;10.30;97.10
26687;DHT22;14298;50.900;4.648;2023-02-03T18:11:34;10.30;97.10
26687;DHT22;14298;50.900;4.648;2023-02-03T18:14:03;10.30;97.10
26687;DHT22;14298;50.900;4.648;2023-02-03T18:16:33;10.30;97.10
26687;DHT22;14298;50.900;4.648;2023-02-03T18:19:07;10.30;97.10
26687;DHT22;14298;50.900;4.648;2023-02-03T18:21:37;10.40;97.10
26687;DHT22;14298;50.900;4.648;2023-02-03T18:24:06;10.40;97.10
26687;DHT22;14298;50.900;4.648;2023-02-03T18:26:35;10.40;97.10
26687;DHT22;14298;50.900;4.648;2023-02-03T18:29:05;10.40;97.10
26687;DHT22;14298;50.900;4.648;2023-02-03T18:31:33;10.40;97.10
26687;DHT22;14298;50.900;4.648;2023-02-03T18:34:03;10.40;97.10
26687;DHT22;14298;50.900;4.648;2023-02-03T18:36:32;10.40;97.10
26687;DHT22;14298;50.900;4.648;2023-02-03T18:39:01;10.40;97.10
26687;DHT22;14298;50.900;4.648;2023-02-03T18:41:29;10.40;97.10
26687;DHT22;14298;50.900;4.648;2023-02-03T18:43:58;10.40;97.10